createdAt,value
2023-04-11T00:00:29.356Z,98544.97
2023-04-11T00:03:00.092Z,98530.75
2023-04-11T00:05:27.993Z,98532.00
2023-04-11T00:07:54.570Z,98534.97
2023-04-11T00:10:21.110Z,98518.50
2023-04-11T00:12:47.585Z,98510.13
2023-04-11T00:15:16.176Z,98524.56
2023-04-11T00:17:45.664Z,98528.31
2023-04-11T00:20:13.064Z,98525.31
2023-04-11T00:22:39.663Z,98520.47
2023-04-11T00:25:07.091Z,98534.88
2023-04-11T00:27:33.649Z,98531.03
2023-04-11T00:30:00.732Z,98512.81
2023-04-11T00:32:27.753Z,98516.31
2023-04-11T00:34:55.260Z,98531.50
2023-04-11T00:37:22.167Z,98498.47
2023-04-11T00:39:52.930Z,98518.06
2023-04-11T00:42:20.064Z,98499.19
2023-04-11T00:44:46.551Z,98512.41
2023-04-11T00:47:13.825Z,98484.94
2023-04-11T00:49:40.951Z,98493.53
2023-04-11T00:52:07.508Z,98507.78
2023-04-11T00:54:34.260Z,98518.09
2023-04-11T00:57:01.805Z,98500.63
2023-04-11T00:59:29.477Z,98491.47
2023-04-11T01:01:56.511Z,98489.63
2023-04-11T01:04:23.987Z,98484.84
2023-04-11T01:06:53.297Z,98478.72
2023-04-11T01:09:21.996Z,98477.44
2023-04-11T01:11:49.755Z,98485.25
2023-04-11T01:14:17.039Z,98458.31
2023-04-11T01:16:46.966Z,98477.63
2023-04-11T01:19:18.704Z,98453.72
2023-04-11T01:21:46.079Z,98458.78
2023-04-11T01:24:12.615Z,98436.44
2023-04-11T01:26:39.058Z,98447.38
2023-04-11T01:29:05.587Z,98445.06
2023-04-11T01:31:32.636Z,98453.63
2023-04-11T01:34:00.370Z,98446.78
2023-04-11T01:36:27.395Z,98430.81
2023-04-11T01:38:54.074Z,98406.88
2023-04-11T01:41:21.499Z,98432.75
2023-04-11T01:43:48.311Z,98418.00
2023-04-11T01:46:15.567Z,98411.91
2023-04-11T01:48:42.671Z,98399.19
2023-04-11T01:51:09.372Z,98421.81
2023-04-11T01:53:35.808Z,98432.94
2023-04-11T01:56:02.264Z,98430.66
2023-04-11T01:58:28.808Z,98432.16
2023-04-11T02:00:55.447Z,98434.94
2023-04-11T02:03:22.604Z,98437.94
2023-04-11T02:05:49.233Z,98431.31
2023-04-11T02:08:15.716Z,98456.16
2023-04-11T02:10:42.210Z,98460.97
2023-04-11T02:13:08.641Z,98430.75
2023-04-11T02:15:35.119Z,98417.94
2023-04-11T02:18:01.859Z,98415.91
2023-04-11T02:20:29.031Z,98406.50
2023-04-11T02:22:55.805Z,98413.09
2023-04-11T02:25:22.273Z,98419.91
2023-04-11T02:27:48.823Z,98439.09
2023-04-11T02:30:15.314Z,98440.56
2023-04-11T02:32:42.884Z,98417.75
2023-04-11T02:35:09.544Z,98430.22
2023-04-11T02:37:36.426Z,98419.09
2023-04-11T02:40:04.296Z,98419.09
2023-04-11T02:42:30.903Z,98424.66
2023-04-11T02:44:57.376Z,98413.25
2023-04-11T02:47:24.208Z,98411.25
2023-04-11T02:49:52.207Z,98414.78
2023-04-11T02:52:19.170Z,98418.78
2023-04-11T02:54:46.033Z,98418.34
2023-04-11T02:57:12.637Z,98423.53
2023-04-11T02:59:39.143Z,98439.06
2023-04-11T03:02:05.728Z,98438.25
2023-04-11T03:04:32.448Z,98430.34
2023-04-11T03:06:59.022Z,98426.09
2023-04-11T03:09:25.993Z,98424.06
2023-04-11T03:11:52.505Z,98441.53
2023-04-11T03:14:19.009Z,98431.66
2023-04-11T03:16:45.561Z,98414.72
2023-04-11T03:19:12.055Z,98401.56
2023-04-11T03:21:38.571Z,98400.31
2023-04-11T03:24:05.528Z,98412.69
2023-04-11T03:26:32.245Z,98412.97
2023-04-11T03:28:59.057Z,98420.53
2023-04-11T03:31:25.827Z,98430.63
2023-04-11T03:33:52.487Z,98425.00
2023-04-11T03:36:19.048Z,98353.66
2023-04-11T03:38:45.509Z,98449.03
2023-04-11T03:41:12.084Z,98447.50
2023-04-11T03:43:38.589Z,98452.28
2023-04-11T03:46:05.690Z,98462.38
2023-04-11T03:48:32.116Z,98474.00
2023-04-11T03:50:58.611Z,98470.16
2023-04-11T03:53:25.373Z,98456.44
2023-04-11T03:55:53.610Z,98449.28
2023-04-11T03:58:20.184Z,98413.31
2023-04-11T04:00:47.128Z,98402.84
2023-04-11T04:03:13.826Z,98438.94
2023-04-11T04:05:41.360Z,98437.31
2023-04-11T04:08:07.875Z,98435.75
2023-04-11T04:10:34.308Z,98440.00
2023-04-11T04:13:00.734Z,98437.78
2023-04-11T04:15:27.249Z,98440.81
2023-04-11T04:17:53.786Z,98445.41
2023-04-11T04:20:20.367Z,98452.19
2023-04-11T04:22:47.314Z,98439.72
2023-04-11T04:25:15.752Z,98435.00
2023-04-11T04:27:46.692Z,98436.03
2023-04-11T04:30:15.579Z,98448.88
2023-04-11T04:32:45.798Z,98430.19
2023-04-11T04:35:14.189Z,98451.66
2023-04-11T04:37:45.715Z,98448.88
2023-04-11T04:40:20.546Z,98444.84
2023-04-11T04:42:49.892Z,98448.03
2023-04-11T04:45:16.417Z,98440.75
2023-04-11T04:47:42.976Z,98449.34
2023-04-11T04:50:09.969Z,98445.06
2023-04-11T04:52:36.519Z,98434.44
2023-04-11T04:55:03.858Z,98411.53
2023-04-11T04:57:32.103Z,98417.72
2023-04-11T04:59:58.869Z,98415.41
2023-04-11T05:02:26.819Z,98399.84
2023-04-11T05:04:56.947Z,98426.22
2023-04-11T05:07:23.600Z,98430.25
2023-04-11T05:09:50.258Z,98438.78
2023-04-11T05:12:17.187Z,98433.72
2023-04-11T05:14:43.779Z,98436.50
2023-04-11T05:17:10.268Z,98433.72
2023-04-11T05:19:36.799Z,98427.91
2023-04-11T05:22:03.357Z,98416.78
2023-04-11T05:24:29.853Z,98432.22
2023-04-11T05:26:56.680Z,98447.31
2023-04-11T05:29:23.245Z,98453.34
2023-04-11T05:31:49.865Z,98465.41
2023-04-11T05:34:16.327Z,98441.22
2023-04-11T05:36:42.972Z,98417.63
2023-04-11T05:39:09.406Z,98411.66
2023-04-11T05:41:35.944Z,98436.91
2023-04-11T05:44:02.423Z,98457.97
2023-04-11T05:46:29.537Z,98460.34
2023-04-11T05:48:57.994Z,98460.34
2023-04-11T05:51:24.766Z,98447.06
2023-04-11T05:53:51.185Z,98431.19
2023-04-11T05:56:17.702Z,98444.38
2023-04-11T05:58:44.447Z,98453.00
2023-04-11T06:01:20.087Z,98464.84
2023-04-11T06:03:47.014Z,98454.53
2023-04-11T06:06:14.082Z,98440.78
2023-04-11T06:08:40.907Z,98458.06
2023-04-11T06:11:07.549Z,98456.03
2023-04-11T06:13:34.006Z,98433.16
2023-04-11T06:16:01.278Z,98452.88
2023-04-11T06:18:27.852Z,98467.31
2023-04-11T06:20:54.324Z,98471.88
2023-04-11T06:23:21.344Z,98468.44
2023-04-11T06:25:47.900Z,98465.25
2023-04-11T06:28:14.391Z,98467.06
2023-04-11T06:30:41.702Z,98469.72
2023-04-11T06:33:08.196Z,98442.00
2023-04-11T06:35:34.769Z,98466.66
2023-04-11T06:38:01.235Z,98469.22
2023-04-11T06:40:27.783Z,98464.22
2023-04-11T06:42:55.329Z,98449.22
2023-04-11T06:45:21.831Z,98467.41
2023-04-11T06:47:49.873Z,98462.22
2023-04-11T06:50:16.499Z,98467.06
2023-04-11T06:52:42.997Z,98446.16
2023-04-11T06:55:10.246Z,98438.94
2023-04-11T06:57:36.811Z,98456.09
2023-04-11T07:00:06.938Z,98453.47
2023-04-11T07:02:35.760Z,98475.00
2023-04-11T07:05:03.337Z,98468.75
2023-04-11T07:07:29.807Z,98473.84
2023-04-11T07:09:56.326Z,98467.06
2023-04-11T07:12:22.902Z,98458.94
2023-04-11T07:14:49.544Z,98484.56
2023-04-11T07:17:16.365Z,98482.00
2023-04-11T07:19:42.756Z,98493.34
2023-04-11T07:22:09.307Z,98482.03
2023-04-11T07:24:36.251Z,98508.91
2023-04-11T07:27:02.818Z,98520.16
2023-04-11T07:29:29.246Z,98519.09
2023-04-11T07:31:55.952Z,98519.47
2023-04-11T07:34:22.632Z,98531.66
2023-04-11T07:36:50.097Z,98537.56
2023-04-11T07:39:16.923Z,98529.09
2023-04-11T07:41:43.437Z,98533.38
2023-04-11T07:44:10.068Z,98516.41
2023-04-11T07:46:36.667Z,98538.94
2023-04-11T07:49:03.258Z,98526.09
2023-04-11T07:51:29.686Z,98537.78
2023-04-11T07:53:56.521Z,98549.53
2023-04-11T07:56:23.272Z,98552.38
2023-04-11T07:58:50.107Z,98557.47
2023-04-11T08:01:26.894Z,98551.56
2023-04-11T08:03:55.011Z,98545.41
2023-04-11T08:06:22.057Z,98557.78
2023-04-11T08:08:49.246Z,98550.75
2023-04-11T08:11:15.901Z,98554.09
2023-04-11T08:13:42.962Z,98554.00
2023-04-11T08:16:11.057Z,98552.41
2023-04-11T08:18:37.601Z,98531.66
2023-04-11T08:21:04.345Z,98549.06
2023-04-11T08:23:30.801Z,98553.34
2023-04-11T08:25:57.421Z,98514.88
2023-04-11T08:28:24.226Z,98531.22
2023-04-11T08:30:58.486Z,98542.34
2023-04-11T08:33:32.245Z,98544.47
2023-04-11T08:36:07.554Z,98531.69
2023-04-11T08:38:36.284Z,98532.59
2023-04-11T08:41:04.341Z,98542.00
2023-04-11T08:43:41.080Z,98547.59
2023-04-11T08:46:10.282Z,98552.41
2023-04-11T08:48:40.057Z,98540.72
2023-04-11T08:51:08.624Z,98562.28
2023-04-11T08:53:38.762Z,98549.16
2023-04-11T08:56:07.199Z,98555.81
2023-04-11T08:58:35.642Z,98556.81
2023-04-11T09:01:30.461Z,98545.94
2023-04-11T09:04:02.213Z,98570.31
2023-04-11T09:06:34.721Z,98566.94
2023-04-11T09:09:09.247Z,98558.47
2023-04-11T09:11:56.456Z,98608.19
2023-04-11T09:14:27.797Z,98569.34
2023-04-11T09:16:57.656Z,98584.53
2023-04-11T09:19:29.331Z,98599.88
2023-04-11T09:22:00.409Z,98584.69
2023-04-11T09:24:27.954Z,98595.63
2023-04-11T09:27:10.626Z,98603.47
2023-04-11T09:29:42.231Z,98621.16
2023-04-11T09:32:27.532Z,98629.78
2023-04-11T09:35:15.778Z,98627.19
2023-04-11T09:38:09.323Z,98636.00
2023-04-11T09:40:42.631Z,98620.75
2023-04-11T09:43:09.141Z,98606.81
2023-04-11T09:45:44.193Z,98599.16
2023-04-11T09:48:18.573Z,98596.84
2023-04-11T09:50:45.546Z,98601.84
2023-04-11T09:53:12.370Z,98604.09
2023-04-11T09:55:41.663Z,98608.00
2023-04-11T09:58:09.823Z,98572.25
2023-04-11T10:00:36.589Z,98599.06
2023-04-11T10:03:03.509Z,98604.72
2023-04-11T10:05:30.421Z,98590.78
2023-04-11T10:08:04.962Z,98593.09
2023-04-11T10:10:32.057Z,98604.47
2023-04-11T10:12:58.814Z,98576.19
2023-04-11T10:15:25.366Z,98598.44
2023-04-11T10:18:11.701Z,98589.41
2023-04-11T10:20:46.397Z,98593.06
2023-04-11T10:23:13.936Z,98583.97
2023-04-11T10:25:52.840Z,98598.72
2023-04-11T10:28:33.259Z,98593.38
2023-04-11T10:31:13.247Z,98588.59
2023-04-11T10:33:41.002Z,98596.22
2023-04-11T10:36:11.341Z,98586.81
2023-04-11T10:38:41.082Z,98590.03
2023-04-11T10:41:22.680Z,98596.66
2023-04-11T10:43:49.850Z,98613.25
2023-04-11T10:46:24.342Z,98606.13
2023-04-11T10:49:01.420Z,98623.38
2023-04-11T10:51:29.970Z,98642.59
2023-04-11T10:53:59.525Z,98647.09
2023-04-11T10:56:49.249Z,98643.72
2023-04-11T10:59:36.847Z,98629.72
2023-04-11T11:02:03.589Z,98643.31
2023-04-11T11:04:37.609Z,98642.59
2023-04-11T11:07:06.752Z,98643.28
2023-04-11T11:09:34.758Z,98641.03
2023-04-11T11:12:14.926Z,98631.66
2023-04-11T11:14:46.700Z,98633.88
2023-04-11T11:17:14.346Z,98643.69
2023-04-11T11:19:45.011Z,98637.50
2023-04-11T11:22:18.791Z,98642.34
2023-04-11T11:24:45.387Z,98632.72
2023-04-11T11:27:22.626Z,98626.06
2023-04-11T11:29:49.835Z,98637.19
2023-04-11T11:32:28.660Z,98636.69
2023-04-11T11:34:57.389Z,98634.06
2023-04-11T11:37:24.018Z,98630.81
2023-04-11T11:39:50.923Z,98614.50
2023-04-11T11:42:17.690Z,98632.22
2023-04-11T11:44:44.297Z,98632.56
2023-04-11T11:47:12.861Z,98632.31
2023-04-11T11:49:54.789Z,98630.34
2023-04-11T11:52:41.480Z,98616.41
2023-04-11T11:55:20.004Z,98641.88
2023-04-11T11:57:47.237Z,98640.28
2023-04-11T12:00:14.955Z,98635.97
2023-04-11T12:02:45.119Z,98595.56
2023-04-11T12:05:12.422Z,98635.25
2023-04-11T12:07:39.527Z,98643.59
2023-04-11T12:10:13.773Z,98655.00
2023-04-11T12:12:53.729Z,98637.19
2023-04-11T12:15:22.817Z,98647.63
2023-04-11T12:17:50.716Z,98644.56
2023-04-11T12:20:21.691Z,98659.28
2023-04-11T12:22:48.417Z,98652.41
2023-04-11T12:25:15.523Z,98655.94
2023-04-11T12:27:43.332Z,98651.91
2023-04-11T12:30:11.384Z,98645.31
2023-04-11T12:32:38.087Z,98647.38
2023-04-11T12:35:06.331Z,98656.28
2023-04-11T12:37:33.499Z,98646.75
2023-04-11T12:40:00.571Z,98640.94
2023-04-11T12:42:27.557Z,98649.31
2023-04-11T12:44:54.529Z,98648.81
2023-04-11T12:47:21.196Z,98654.66
2023-04-11T12:49:47.741Z,98646.03
2023-04-11T12:52:14.291Z,98652.63
2023-04-11T12:54:41.125Z,98654.91
2023-04-11T12:57:07.856Z,98651.84
2023-04-11T12:59:34.335Z,98641.16
2023-04-11T13:02:01.488Z,98660.97
2023-04-11T13:04:28.364Z,98650.84
2023-04-11T13:06:54.922Z,98651.06
2023-04-11T13:09:21.386Z,98659.78
2023-04-11T13:11:49.024Z,98657.06
2023-04-11T13:14:15.516Z,98652.53
2023-04-11T13:16:43.275Z,98642.91
2023-04-11T13:19:09.818Z,98652.78
2023-04-11T13:21:37.305Z,98645.34
2023-04-11T13:24:03.794Z,98652.28
2023-04-11T13:26:30.297Z,98628.22
2023-04-11T13:28:57.435Z,98648.31
2023-04-11T13:31:26.686Z,98642.47
2023-04-11T13:33:53.535Z,98650.09
2023-04-11T13:36:20.084Z,98639.00
2023-04-11T13:38:47.354Z,98630.66
2023-04-11T13:41:14.884Z,98643.63
2023-04-11T13:43:41.716Z,98640.81
2023-04-11T13:46:08.690Z,98645.16
2023-04-11T13:48:35.460Z,98645.16
2023-04-11T13:51:01.976Z,98610.59
2023-04-11T13:53:28.472Z,98642.31
2023-04-11T13:55:55.022Z,98658.63
2023-04-11T13:58:22.245Z,98653.03
2023-04-11T14:00:50.320Z,98653.56
2023-04-11T14:03:17.048Z,98655.63
2023-04-11T14:05:43.788Z,98679.00
2023-04-11T14:08:10.599Z,98682.78
2023-04-11T14:10:37.195Z,98695.25
2023-04-11T14:13:05.318Z,98686.66
2023-04-11T14:15:31.897Z,98669.38
2023-04-11T14:17:58.420Z,98674.97
2023-04-11T14:20:25.417Z,98678.53
2023-04-11T14:22:52.142Z,98671.69
2023-04-11T14:25:19.210Z,98680.81
2023-04-11T14:27:45.735Z,98680.56
2023-04-11T14:30:13.017Z,98683.88
2023-04-11T14:32:40.500Z,98686.91
2023-04-11T14:35:08.576Z,98685.88
2023-04-11T14:37:35.512Z,98692.22
2023-04-11T14:40:05.032Z,98685.59
2023-04-11T14:42:31.742Z,98694.53
2023-04-11T14:44:58.204Z,98695.53
2023-04-11T14:47:24.867Z,98704.16
2023-04-11T14:49:51.397Z,98697.06
2023-04-11T14:52:17.978Z,98696.78
2023-04-11T14:54:44.439Z,98708.97
2023-04-11T14:57:10.971Z,98709.47
2023-04-11T14:59:37.640Z,98720.91
2023-04-11T15:02:05.025Z,98716.25
2023-04-11T15:04:31.902Z,98751.25
2023-04-11T15:06:59.119Z,98751.56
2023-04-11T15:09:25.682Z,98759.50
2023-04-11T15:11:52.443Z,98756.78
2023-04-11T15:14:19.171Z,98767.28
2023-04-11T15:16:45.700Z,98801.78
2023-04-11T15:19:12.217Z,98792.69
2023-04-11T15:21:38.701Z,98845.31
2023-04-11T15:24:07.371Z,98855.41
2023-04-11T15:26:34.382Z,98864.88
2023-04-11T15:29:00.938Z,98863.44
2023-04-11T15:31:27.619Z,98849.25
2023-04-11T15:33:57.168Z,98865.91
2023-04-11T15:36:24.127Z,98844.00
2023-04-11T15:38:50.890Z,98825.50
2023-04-11T15:41:17.480Z,98783.53
2023-04-11T15:43:44.072Z,98795.50
2023-04-11T15:46:10.690Z,98742.81
2023-04-11T15:48:37.150Z,98754.59
2023-04-11T15:51:10.778Z,98746.16
2023-04-11T15:53:37.434Z,98757.31
2023-04-11T15:56:06.091Z,98756.09
2023-04-11T15:58:33.842Z,98754.66
2023-04-11T16:01:01.636Z,98734.88
2023-04-11T16:03:32.217Z,98745.34
2023-04-11T16:05:59.794Z,98749.19
2023-04-11T16:08:27.501Z,98736.63
2023-04-11T16:10:54.490Z,98723.00
2023-04-11T16:13:21.238Z,98726.75
2023-04-11T16:15:47.803Z,98741.13
2023-04-11T16:18:15.814Z,98739.41
2023-04-11T16:20:42.302Z,98732.38
2023-04-11T16:23:10.264Z,98737.81
2023-04-11T16:25:37.565Z,98719.38
2023-04-11T16:28:04.055Z,98726.06
2023-04-11T16:30:30.479Z,98732.22
2023-04-11T16:32:57.252Z,98739.00
2023-04-11T16:35:23.751Z,98758.69
2023-04-11T16:37:50.714Z,98755.97
2023-04-11T16:40:17.180Z,98746.38
2023-04-11T16:42:43.781Z,98735.88
2023-04-11T16:45:10.752Z,98721.16
2023-04-11T16:47:37.807Z,98744.38
2023-04-11T16:50:05.734Z,98748.97
2023-04-11T16:52:32.558Z,98755.63
2023-04-11T16:54:59.054Z,98742.41
2023-04-11T16:57:25.662Z,98735.72
2023-04-11T16:59:52.159Z,98748.56
2023-04-11T17:02:18.708Z,98753.69
2023-04-11T17:04:45.252Z,98758.56
2023-04-11T17:07:11.763Z,98765.94
2023-04-11T17:09:39.354Z,98764.97
2023-04-11T17:12:06.108Z,98764.53
2023-04-11T17:14:34.912Z,98761.75
2023-04-11T17:17:01.564Z,98760.72
2023-04-11T17:19:28.271Z,98750.78
2023-04-11T17:21:54.709Z,98735.88
2023-04-11T17:24:21.173Z,98764.81
2023-04-11T17:26:47.704Z,98772.88
2023-04-11T17:29:14.230Z,98780.94
2023-04-11T17:31:40.691Z,98787.53
2023-04-11T17:34:07.273Z,98781.53
2023-04-11T17:36:33.783Z,98795.16
2023-04-11T17:39:00.315Z,98801.38
2023-04-11T17:41:32.605Z,98785.09
2023-04-11T17:43:59.382Z,98780.22
2023-04-11T17:46:26.302Z,98781.75
2023-04-11T17:48:52.908Z,98789.53
2023-04-11T17:51:19.430Z,98793.00
2023-04-11T17:53:45.868Z,98773.44
2023-04-11T17:56:12.583Z,98790.88
2023-04-11T17:58:44.092Z,98794.06
2023-04-11T18:01:11.212Z,98776.53
2023-04-11T18:03:38.369Z,98801.22
2023-04-11T18:06:06.331Z,98796.34
2023-04-11T18:08:49.210Z,98800.50
2023-04-11T18:11:16.680Z,98798.78
2023-04-11T18:13:43.773Z,98797.31
2023-04-11T18:16:11.006Z,98787.91
2023-04-11T18:18:37.601Z,98795.28
2023-04-11T18:21:07.176Z,98800.84
2023-04-11T18:23:34.015Z,98774.78
2023-04-11T18:26:00.554Z,98797.97
2023-04-11T18:28:26.997Z,98796.72
2023-04-11T18:30:53.562Z,98799.19
2023-04-11T18:33:20.948Z,98799.38
2023-04-11T18:35:47.785Z,98790.00
2023-04-11T18:38:14.461Z,98810.09
2023-04-11T18:40:41.175Z,98810.47
2023-04-11T18:43:08.206Z,98807.75
2023-04-11T18:45:35.206Z,98819.31
2023-04-11T18:48:02.191Z,98787.28
2023-04-11T18:50:30.626Z,98815.69
2023-04-11T18:53:00.385Z,98825.34
2023-04-11T18:55:30.714Z,98827.19
2023-04-11T18:57:59.977Z,98814.81
2023-04-11T19:00:28.737Z,98822.84
2023-04-11T19:02:55.465Z,98823.78
2023-04-11T19:05:25.084Z,98824.94
2023-04-11T19:07:52.820Z,98845.88
2023-04-11T19:10:19.714Z,98840.72
2023-04-11T19:12:46.156Z,98838.75
2023-04-11T19:15:12.820Z,98839.25
2023-04-11T19:17:39.505Z,98838.25
2023-04-11T19:20:07.188Z,98831.81
2023-04-11T19:22:34.640Z,98828.72
2023-04-11T19:25:01.103Z,98831.53
2023-04-11T19:27:27.582Z,98837.25
2023-04-11T19:29:54.227Z,98824.03
2023-04-11T19:32:20.927Z,98833.91
2023-04-11T19:34:49.524Z,98827.31
2023-04-11T19:37:16.555Z,98835.16
2023-04-11T19:39:43.713Z,98806.44
2023-04-11T19:42:10.626Z,98817.34
2023-04-11T19:44:37.727Z,98799.25
2023-04-11T19:47:04.287Z,98827.22
2023-04-11T19:49:30.885Z,98803.09
2023-04-11T19:51:57.409Z,98836.94
2023-04-11T19:54:23.983Z,98827.25
2023-04-11T19:56:53.708Z,98808.94
2023-04-11T19:59:20.574Z,98809.56
2023-04-11T20:01:47.207Z,98799.25
2023-04-11T20:04:15.703Z,98820.16
2023-04-11T20:06:44.163Z,98814.94
2023-04-11T20:09:11.660Z,98807.84
2023-04-11T20:11:39.141Z,98813.22
2023-04-11T20:14:06.860Z,98791.06
2023-04-11T20:16:33.410Z,98797.38
2023-04-11T20:19:01.495Z,98806.13
2023-04-11T20:21:28.093Z,98813.03
2023-04-11T20:23:54.683Z,98800.00
2023-04-11T20:26:21.767Z,98800.31
2023-04-11T20:28:49.831Z,98795.53
2023-04-11T20:31:16.384Z,98780.94
2023-04-11T20:33:44.161Z,98791.53
2023-04-11T20:36:11.303Z,98787.72
2023-04-11T20:38:37.998Z,98789.84
2023-04-11T20:41:05.760Z,98790.94
2023-04-11T20:43:32.431Z,98787.38
2023-04-11T20:45:59.005Z,98780.19
2023-04-11T20:48:25.868Z,98780.81
2023-04-11T20:50:55.727Z,98766.31
2023-04-11T20:53:22.255Z,98785.09
2023-04-11T20:55:48.853Z,98767.59
2023-04-11T20:58:18.527Z,98768.94
2023-04-11T21:00:45.451Z,98771.84
2023-04-11T21:03:12.506Z,98767.09
2023-04-11T21:05:39.805Z,98763.84
2023-04-11T21:08:06.604Z,98768.13
2023-04-11T21:10:33.255Z,98757.97
2023-04-11T21:12:59.794Z,98759.97
2023-04-11T21:15:26.395Z,98758.25
2023-04-11T21:17:52.933Z,98757.16
2023-04-11T21:20:20.236Z,98746.69
2023-04-11T21:22:47.630Z,98744.94
2023-04-11T21:25:14.514Z,98750.16
2023-04-11T21:27:41.377Z,98752.47
2023-04-11T21:30:11.647Z,98755.34
2023-04-11T21:32:39.190Z,98747.50
2023-04-11T21:35:07.795Z,98732.88
2023-04-11T21:37:34.644Z,98752.69
2023-04-11T21:40:01.328Z,98757.31
2023-04-11T21:42:27.854Z,98757.75
2023-04-11T21:44:54.340Z,98760.66
2023-04-11T21:47:21.383Z,98758.50
2023-04-11T21:49:48.183Z,98737.09
2023-04-11T21:52:14.633Z,98748.94
2023-04-11T21:54:44.031Z,98743.69
2023-04-11T21:57:10.970Z,98744.59
2023-04-11T21:59:38.740Z,98744.41
2023-04-11T22:02:05.601Z,98731.19
2023-04-11T22:04:37.241Z,98703.66
2023-04-11T22:07:14.964Z,98722.09
2023-04-11T22:09:46.463Z,98721.66
2023-04-11T22:12:17.309Z,98715.94
2023-04-11T22:14:43.741Z,98720.06
2023-04-11T22:17:10.223Z,98720.97
2023-04-11T22:19:36.626Z,98724.91
2023-04-11T22:22:03.586Z,98720.88
2023-04-11T22:24:32.872Z,98694.31
2023-04-11T22:26:59.382Z,98712.63
2023-04-11T22:29:31.020Z,98717.81
2023-04-11T22:31:59.476Z,98713.72
2023-04-11T22:34:29.969Z,98713.53
2023-04-11T22:36:57.761Z,98700.66
2023-04-11T22:39:25.440Z,98695.06
2023-04-11T22:41:53.344Z,98700.44
2023-04-11T22:44:19.967Z,98698.34
2023-04-11T22:47:01.170Z,98694.94
2023-04-11T22:49:27.754Z,98690.97
2023-04-11T22:51:59.028Z,98691.09
2023-04-11T22:54:28.605Z,98672.63
2023-04-11T22:56:57.215Z,98678.81
2023-04-11T22:59:24.877Z,98681.34
2023-04-11T23:01:51.841Z,98679.06
2023-04-11T23:04:19.693Z,98666.34
2023-04-11T23:06:53.679Z,98668.28
2023-04-11T23:09:20.695Z,98675.59
2023-04-11T23:11:47.617Z,98669.44
2023-04-11T23:14:15.338Z,98655.31
2023-04-11T23:16:43.358Z,98664.81
2023-04-11T23:19:10.461Z,98663.25
2023-04-11T23:21:37.785Z,98640.59
2023-04-11T23:24:05.511Z,98658.03
2023-04-11T23:26:32.183Z,98650.34
2023-04-11T23:29:00.566Z,98642.69
2023-04-11T23:31:27.381Z,98620.97
2023-04-11T23:33:53.967Z,98640.97
2023-04-11T23:36:20.922Z,98623.53
2023-04-11T23:38:47.569Z,98618.09
2023-04-11T23:41:14.707Z,98638.03
2023-04-11T23:43:41.302Z,98637.81
2023-04-11T23:46:07.906Z,98620.75
2023-04-11T23:48:34.438Z,98625.97
2023-04-11T23:51:01.295Z,98624.41
2023-04-11T23:53:27.802Z,98618.91
2023-04-11T23:55:54.297Z,98617.94
2023-04-11T23:58:20.852Z,98607.28
